sensor_id;sensor_type;location;lat;lon;timestamp;pressure;altitude;pressure_sealevel;temperature;humidity
5550;BME280;2798;42.716;23.256;2024-01-30T00:00:28;96649.59;;;2.89;62.42
5550;BME280;2798;42.716;23.256;2024-01-30T00:02:53;96649.69;;;2.80;62.44
5550;BME280;2798;42.716;23.256;2024-01-30T00:05:18;96647.75;;;3.02;62.48
5550;BME280;2798;42.716;23.256;2024-01-30T00:07:43;96646.13;;;2.96;61.76
5550;BME280;2798;42.716;23.256;2024-01-30T00:10:09;96652.78;;;3.07;61.58
5550;BME280;2798;42.716;23.256;2024-01-30T00:12:34;96650.44;;;2.90;62.49
5550;BME280;2798;42.716;23.256;2024-01-30T00:14:59;96647.88;;;2.91;62.29
5550;BME280;2798;42.716;23.256;2024-01-30T00:17:25;96658.97;;;2.82;63.37
5550;BME280;2798;42.716;23.256;2024-01-30T00:19:51;96655.56;;;2.87;62.33
5550;BME280;2798;42.716;23.256;2024-01-30T00:22:17;96658.88;;;2.95;63.13
5550;BME280;2798;42.716;23.256;2024-01-30T00:24:42;96657.91;;;3.04;62.23
5550;BME280;2798;42.716;23.256;2024-01-30T00:27:07;96660.69;;;2.83;62.00
5550;BME280;2798;42.716;23.256;2024-01-30T00:29:33;96654.72;;;2.84;62.19
5550;BME280;2798;42.716;23.256;2024-01-30T00:31:59;96650.50;;;2.83;62.90
5550;BME280;2798;42.716;23.256;2024-01-30T00:34:24;96656.59;;;2.65;63.45
5550;BME280;2798;42.716;23.256;2024-01-30T00:36:49;96647.06;;;2.86;63.00
5550;BME280;2798;42.716;23.256;2024-01-30T00:39:14;96648.09;;;2.68;63.10
5550;BME280;2798;42.716;23.256;2024-01-30T00:41:41;96653.13;;;2.77;63.19
5550;BME280;2798;42.716;23.256;2024-01-30T00:44:06;96654.72;;;2.84;62.07
5550;BME280;2798;42.716;23.256;2024-01-30T00:46:31;96649.69;;;2.80;62.98
5550;BME280;2798;42.716;23.256;2024-01-30T00:48:56;96648.09;;;2.68;62.60
5550;BME280;2798;42.716;23.256;2024-01-30T00:51:22;96653.13;;;2.77;63.13
5550;BME280;2798;42.716;23.256;2024-01-30T00:53:47;96652.41;;;2.63;63.44
5550;BME280;2798;42.716;23.256;2024-01-30T00:56:12;96658.94;;;2.84;62.20
5550;BME280;2798;42.716;23.256;2024-01-30T00:58:38;96643.00;;;2.69;63.18
5550;BME280;2798;42.716;23.256;2024-01-30T01:01:03;96642.16;;;2.69;62.65
5550;BME280;2798;42.716;23.256;2024-01-30T01:03:29;96643.06;;;2.63;63.11
5550;BME280;2798;42.716;23.256;2024-01-30T01:05:56;96650.88;;;2.44;62.94
5550;BME280;2798;42.716;23.256;2024-01-30T01:08:21;96653.50;;;2.35;62.58
5550;BME280;2798;42.716;23.256;2024-01-30T01:10:47;96646.81;;;2.23;63.34
5550;BME280;2798;42.716;23.256;2024-01-30T01:13:12;96653.50;;;2.33;63.21
5550;BME280;2798;42.716;23.256;2024-01-30T01:15:37;96645.00;;;2.38;62.65
5550;BME280;2798;42.716;23.256;2024-01-30T01:18:02;96642.47;;;2.36;62.45
5550;BME280;2798;42.716;23.256;2024-01-30T01:20:28;96640.84;;;2.30;62.34
5550;BME280;2798;42.716;23.256;2024-01-30T01:22:53;96643.41;;;2.26;62.20
5550;BME280;2798;42.716;23.256;2024-01-30T01:25:19;96646.84;;;2.17;62.63
5550;BME280;2798;42.716;23.256;2024-01-30T01:27:44;96647.72;;;2.16;63.23
5550;BME280;2798;42.716;23.256;2024-01-30T01:30:16;96647.78;;;2.08;63.36
5550;BME280;2798;42.716;23.256;2024-01-30T01:32:46;96648.59;;;2.12;63.00
5550;BME280;2798;42.716;23.256;2024-01-30T01:35:15;96651.94;;;2.17;63.67
5550;BME280;2798;42.716;23.256;2024-01-30T01:37:41;96650.28;;;2.14;63.68
5550;BME280;2798;42.716;23.256;2024-01-30T01:40:06;96649.47;;;2.09;63.71
5550;BME280;2798;42.716;23.256;2024-01-30T01:42:32;96652.81;;;2.13;63.42
5550;BME280;2798;42.716;23.256;2024-01-30T01:44:57;96651.94;;;2.17;63.69
5550;BME280;2798;42.716;23.256;2024-01-30T01:47:22;96655.28;;;2.22;63.41
5550;BME280;2798;42.716;23.256;2024-01-30T01:49:48;96608.91;;;2.00;63.58
5550;BME280;2798;42.716;23.256;2024-01-30T01:52:13;96647.66;;;2.24;62.20
5550;BME280;2798;42.716;23.256;2024-01-30T01:54:38;96656.13;;;2.24;63.84
5550;BME280;2798;42.716;23.256;2024-01-30T01:57:04;96654.56;;;2.06;63.05
5550;BME280;2798;42.716;23.256;2024-01-30T01:59:29;96657.94;;;2.08;63.27
5550;BME280;2798;42.716;23.256;2024-01-30T02:01:55;96660.47;;;2.06;64.19
5550;BME280;2798;42.716;23.256;2024-01-30T02:04:20;96657.78;;;2.27;63.37
5550;BME280;2798;42.716;23.256;2024-01-30T02:06:46;96666.28;;;2.26;63.21
5550;BME280;2798;42.716;23.256;2024-01-30T02:09:11;96660.41;;;2.16;63.63
5550;BME280;2798;42.716;23.256;2024-01-30T02:11:36;96662.06;;;2.20;63.95
5550;BME280;2798;42.716;23.256;2024-01-30T02:14:02;96663.72;;;2.27;63.83
5550;BME280;2798;42.716;23.256;2024-01-30T02:16:28;96659.31;;;2.48;62.86
5550;BME280;2798;42.716;23.256;2024-01-30T02:18:53;96660.19;;;2.44;63.14
5550;BME280;2798;42.716;23.256;2024-01-30T02:21:18;96657.69;;;2.38;62.61
5550;BME280;2798;42.716;23.256;2024-01-30T02:23:44;96654.22;;;2.50;63.30
5550;BME280;2798;42.716;23.256;2024-01-30T02:26:11;96656.00;;;2.38;62.63
5550;BME280;2798;42.716;23.256;2024-01-30T02:28:37;96654.34;;;2.31;62.63
5550;BME280;2798;42.716;23.256;2024-01-30T02:31:02;96658.66;;;2.22;63.55
5550;BME280;2798;42.716;23.256;2024-01-30T02:33:27;96658.69;;;2.19;63.13
5550;BME280;2798;42.716;23.256;2024-01-30T02:35:52;96655.28;;;2.22;63.38
5550;BME280;2798;42.716;23.256;2024-01-30T02:38:18;96651.91;;;2.18;62.93
5550;BME280;2798;42.716;23.256;2024-01-30T02:40:43;96656.88;;;2.32;62.48
5550;BME280;2798;42.716;23.256;2024-01-30T02:43:09;96651.81;;;2.31;63.14
5550;BME280;2798;42.716;23.256;2024-01-30T02:45:34;96654.47;;;2.18;63.24
5550;BME280;2798;42.716;23.256;2024-01-30T02:47:59;96654.38;;;2.28;62.67
5550;BME280;2798;42.716;23.256;2024-01-30T02:50:24;96658.66;;;2.22;62.62
5550;BME280;2798;42.716;23.256;2024-01-30T02:52:50;96657.03;;;2.14;62.68
5550;BME280;2798;42.716;23.256;2024-01-30T02:55:16;96655.31;;;2.19;62.57
5550;BME280;2798;42.716;23.256;2024-01-30T02:57:43;96662.00;;;2.28;63.36
5550;BME280;2798;42.716;23.256;2024-01-30T03:00:08;96655.28;;;2.22;61.98
5550;BME280;2798;42.716;23.256;2024-01-30T03:02:34;96658.66;;;2.27;62.25
5550;BME280;2798;42.716;23.256;2024-01-30T03:05:00;96653.63;;;2.16;62.32
5550;BME280;2798;42.716;23.256;2024-01-30T03:07:25;96659.47;;;2.28;61.76
5550;BME280;2798;42.716;23.256;2024-01-30T03:09:51;96650.06;;;2.39;61.03
5550;BME280;2798;42.716;23.256;2024-01-30T03:12:16;96645.06;;;2.30;60.60
5550;BME280;2798;42.716;23.256;2024-01-30T03:14:41;96645.91;;;2.32;61.93
5550;BME280;2798;42.716;23.256;2024-01-30T03:17:07;96641.72;;;2.25;61.20
5550;BME280;2798;42.716;23.256;2024-01-30T03:19:32;96636.69;;;2.18;61.54
5550;BME280;2798;42.716;23.256;2024-01-30T03:21:58;96642.50;;;2.31;61.70
5550;BME280;2798;42.716;23.256;2024-01-30T03:24:23;96646.72;;;2.31;61.29
5550;BME280;2798;42.716;23.256;2024-01-30T03:26:49;96640.84;;;2.27;61.29
5550;BME280;2798;42.716;23.256;2024-01-30T03:29:14;96640.91;;;2.19;60.78
5550;BME280;2798;42.716;23.256;2024-01-30T03:31:40;96635.78;;;2.22;60.84
5550;BME280;2798;42.716;23.256;2024-01-30T03:34:05;96640.88;;;2.26;60.16
5550;BME280;2798;42.716;23.256;2024-01-30T03:36:31;96667.19;;;2.17;60.57
5550;BME280;2798;42.716;23.256;2024-01-30T03:38:58;96631.59;;;2.20;60.94
5550;BME280;2798;42.716;23.256;2024-01-30T03:41:24;96628.13;;;2.32;60.19
5550;BME280;2798;42.716;23.256;2024-01-30T03:43:49;96640.03;;;2.22;60.05
5550;BME280;2798;42.716;23.256;2024-01-30T03:46:15;96632.34;;;2.31;60.50
5550;BME280;2798;42.716;23.256;2024-01-30T03:48:40;96632.41;;;2.24;59.78
5550;BME280;2798;42.716;23.256;2024-01-30T03:51:05;96634.84;;;2.36;60.70
5550;BME280;2798;42.716;23.256;2024-01-30T03:53:31;96633.97;;;2.37;59.75
5550;BME280;2798;42.716;23.256;2024-01-30T03:55:56;96627.34;;;2.24;59.99
5550;BME280;2798;42.716;23.256;2024-01-30T03:58:22;96629.81;;;2.31;60.07
5550;BME280;2798;42.716;23.256;2024-01-30T04:00:47;96628.09;;;2.35;59.91
5550;BME280;2798;42.716;23.256;2024-01-30T04:03:12;96623.09;;;2.24;60.10
5550;BME280;2798;42.716;23.256;2024-01-30T04:05:37;96623.13;;;2.16;60.27
5550;BME280;2798;42.716;23.256;2024-01-30T04:08:03;96624.72;;;2.30;59.47
5550;BME280;2798;42.716;23.256;2024-01-30T04:10:28;96618.72;;;2.39;59.92
5550;BME280;2798;42.716;23.256;2024-01-30T04:12:53;96620.63;;;2.15;60.17
5550;BME280;2798;42.716;23.256;2024-01-30T04:15:19;96621.47;;;2.15;59.70
5550;BME280;2798;42.716;23.256;2024-01-30T04:17:44;96624.09;;;2.06;59.54
5550;BME280;2798;42.716;23.256;2024-01-30T04:20:15;96624.91;;;2.05;59.76
5550;BME280;2798;42.716;23.256;2024-01-30T04:22:44;96618.00;;;2.21;60.59
5550;BME280;2798;42.716;23.256;2024-01-30T04:25:09;96645.84;;;2.37;59.89
5550;BME280;2798;42.716;23.256;2024-01-30T04:27:35;96625.69;;;2.15;60.11
5550;BME280;2798;42.716;23.256;2024-01-30T04:30:00;96629.03;;;2.21;60.04
5550;BME280;2798;42.716;23.256;2024-01-30T04:32:25;96631.47;;;2.34;59.46
5550;BME280;2798;42.716;23.256;2024-01-30T04:34:51;96635.88;;;2.13;60.52
5550;BME280;2798;42.716;23.256;2024-01-30T04:37:16;96635.94;;;2.05;59.77
5550;BME280;2798;42.716;23.256;2024-01-30T04:39:41;96632.38;;;2.27;60.60
5550;BME280;2798;42.716;23.256;2024-01-30T04:42:07;96630.88;;;2.04;59.73
5550;BME280;2798;42.716;23.256;2024-01-30T04:44:32;96634.38;;;1.84;61.28
5550;BME280;2798;42.716;23.256;2024-01-30T04:46:57;96640.31;;;1.84;60.97
5550;BME280;2798;42.716;23.256;2024-01-30T04:49:26;96637.63;;;2.03;60.62
5550;BME280;2798;42.716;23.256;2024-01-30T04:51:51;96578.78;;;1.48;61.26
5550;BME280;2798;42.716;23.256;2024-01-30T04:54:16;96648.72;;;1.96;60.76
5550;BME280;2798;42.716;23.256;2024-01-30T04:56:42;96658.00;;;1.97;60.85
5550;BME280;2798;42.716;23.256;2024-01-30T04:59:07;96660.41;;;2.17;60.22
5550;BME280;2798;42.716;23.256;2024-01-30T05:01:33;96665.47;;;2.19;61.09
5550;BME280;2798;42.716;23.256;2024-01-30T05:03:58;96662.97;;;2.14;60.14
5550;BME280;2798;42.716;23.256;2024-01-30T05:06:26;96661.28;;;2.13;61.21
5550;BME280;2798;42.716;23.256;2024-01-30T05:08:52;96668.09;;;2.08;60.75
5550;BME280;2798;42.716;23.256;2024-01-30T05:11:17;96660.56;;;1.92;61.25
5550;BME280;2798;42.716;23.256;2024-01-30T05:13:42;96669.84;;;2.01;61.84
5550;BME280;2798;42.716;23.256;2024-01-30T05:16:08;96602.41;;;1.59;60.40
5550;BME280;2798;42.716;23.256;2024-01-30T05:18:33;96665.69;;;1.88;61.37
5550;BME280;2798;42.716;23.256;2024-01-30T05:20:58;96660.59;;;1.89;61.69
5550;BME280;2798;42.716;23.256;2024-01-30T05:23:24;96668.97;;;2.02;60.49
5550;BME280;2798;42.716;23.256;2024-01-30T05:25:49;96672.44;;;1.93;61.25
5550;BME280;2798;42.716;23.256;2024-01-30T05:28:15;96665.72;;;1.80;61.69
5550;BME280;2798;42.716;23.256;2024-01-30T05:30:40;96665.78;;;1.73;61.51
5550;BME280;2798;42.716;23.256;2024-01-30T05:33:05;96673.41;;;1.70;61.43
5550;BME280;2798;42.716;23.256;2024-01-30T05:35:31;96674.22;;;1.79;61.26
5550;BME280;2798;42.716;23.256;2024-01-30T05:37:56;96672.56;;;1.70;61.40
5550;BME280;2798;42.716;23.256;2024-01-30T05:40:21;96667.47;;;1.70;61.84
5550;BME280;2798;42.716;23.256;2024-01-30T05:42:47;96671.69;;;1.79;61.66
5550;BME280;2798;42.716;23.256;2024-01-30T05:45:12;96670.91;;;1.67;62.13
5550;BME280;2798;42.716;23.256;2024-01-30T05:47:37;96670.94;;;1.58;61.48
5550;BME280;2798;42.716;23.256;2024-01-30T05:50:03;96671.72;;;1.72;61.38
5550;BME280;2798;42.716;23.256;2024-01-30T05:52:28;96668.34;;;1.69;60.87
5550;BME280;2798;42.716;23.256;2024-01-30T05:54:53;96662.44;;;1.67;60.68
5550;BME280;2798;42.716;23.256;2024-01-30T05:57:19;96665.88;;;1.59;61.67
5550;BME280;2798;42.716;23.256;2024-01-30T05:59:44;96662.44;;;1.62;61.93
5550;BME280;2798;42.716;23.256;2024-01-30T06:02:13;96670.00;;;1.71;60.95
5550;BME280;2798;42.716;23.256;2024-01-30T06:04:38;96670.06;;;1.62;60.93
5550;BME280;2798;42.716;23.256;2024-01-30T06:07:03;96671.72;;;1.65;61.57
5550;BME280;2798;42.716;23.256;2024-01-30T06:09:31;96696.22;;;1.75;61.91
5550;BME280;2798;42.716;23.256;2024-01-30T06:11:56;96666.59;;;1.80;61.71
5550;BME280;2798;42.716;23.256;2024-01-30T06:14:21;96677.53;;;1.84;61.17
5550;BME280;2798;42.716;23.256;2024-01-30T06:16:47;96671.66;;;1.80;60.59
5550;BME280;2798;42.716;23.256;2024-01-30T06:19:12;96666.53;;;1.88;60.81
5550;BME280;2798;42.716;23.256;2024-01-30T06:21:37;96665.69;;;1.84;60.25
5550;BME280;2798;42.716;23.256;2024-01-30T06:24:03;96667.38;;;1.87;60.64
5550;BME280;2798;42.716;23.256;2024-01-30T06:26:29;96669.09;;;1.83;60.68
5550;BME280;2798;42.716;23.256;2024-01-30T06:28:54;96676.72;;;1.82;59.94
5550;BME280;2798;42.716;23.256;2024-01-30T06:31:19;96677.53;;;1.90;60.23
5550;BME280;2798;42.716;23.256;2024-01-30T06:33:46;96679.22;;;1.91;60.35
5550;BME280;2798;42.716;23.256;2024-01-30T06:36:12;96670.72;;;1.92;60.01
5550;BME280;2798;42.716;23.256;2024-01-30T06:38:37;96674.13;;;1.90;61.43
5550;BME280;2798;42.716;23.256;2024-01-30T06:41:02;96678.38;;;1.86;59.78
5550;BME280;2798;42.716;23.256;2024-01-30T06:43:27;96677.53;;;1.84;60.73
5550;BME280;2798;42.716;23.256;2024-01-30T06:45:53;96674.97;;;1.89;59.90
5550;BME280;2798;42.716;23.256;2024-01-30T06:48:18;96673.25;;;1.92;60.40
5550;BME280;2798;42.716;23.256;2024-01-30T06:50:43;96676.59;;;2.01;60.25
5550;BME280;2798;42.716;23.256;2024-01-30T06:53:09;96672.38;;;2.01;59.96
5550;BME280;2798;42.716;23.256;2024-01-30T06:55:34;96678.28;;;2.03;60.54
5550;BME280;2798;42.716;23.256;2024-01-30T06:57:59;96682.56;;;2.00;60.23
5550;BME280;2798;42.716;23.256;2024-01-30T07:00:24;96682.53;;;2.01;58.83
5550;BME280;2798;42.716;23.256;2024-01-30T07:02:49;96688.34;;;2.17;59.71
5550;BME280;2798;42.716;23.256;2024-01-30T07:05:15;96689.97;;;2.28;59.19
5550;BME280;2798;42.716;23.256;2024-01-30T07:07:40;96679.81;;;2.25;57.81
5550;BME280;2798;42.716;23.256;2024-01-30T07:10:06;96686.59;;;2.22;59.56
5550;BME280;2798;42.716;23.256;2024-01-30T07:12:32;96684.09;;;2.19;59.57
5550;BME280;2798;42.716;23.256;2024-01-30T07:14:57;96683.28;;;2.14;59.95
5550;BME280;2798;42.716;23.256;2024-01-30T07:17:24;96682.38;;;2.21;59.65
5550;BME280;2798;42.716;23.256;2024-01-30T07:19:50;96686.53;;;2.33;59.60
5550;BME280;2798;42.716;23.256;2024-01-30T07:22:15;96689.06;;;2.35;58.79
5550;BME280;2798;42.716;23.256;2024-01-30T07:24:43;96687.44;;;2.23;58.84
5550;BME280;2798;42.716;23.256;2024-01-30T07:27:14;96695.84;;;2.33;59.49
5550;BME280;2798;42.716;23.256;2024-01-30T07:29:39;96682.19;;;2.48;59.04
5550;BME280;2798;42.716;23.256;2024-01-30T07:32:05;96689.03;;;2.38;59.02
5550;BME280;2798;42.716;23.256;2024-01-30T07:34:30;96687.31;;;2.40;58.17
5550;BME280;2798;42.716;23.256;2024-01-30T07:36:55;96684.69;;;2.51;58.43
5550;BME280;2798;42.716;23.256;2024-01-30T07:39:21;96688.03;;;2.56;57.38
5550;BME280;2798;42.716;23.256;2024-01-30T07:41:46;96635.91;;;2.10;57.45
5550;BME280;2798;42.716;23.256;2024-01-30T07:44:12;96681.25;;;2.58;56.96
5550;BME280;2798;42.716;23.256;2024-01-30T07:46:38;96676.06;;;2.68;56.38
5550;BME280;2798;42.716;23.256;2024-01-30T07:49:03;96682.03;;;2.64;56.56
5550;BME280;2798;42.716;23.256;2024-01-30T07:51:28;96676.25;;;2.49;57.26
5550;BME280;2798;42.716;23.256;2024-01-30T07:53:56;96677.00;;;2.59;56.21
5550;BME280;2798;42.716;23.256;2024-01-30T07:56:22;96671.91;;;2.61;56.14
5550;BME280;2798;42.716;23.256;2024-01-30T07:58:47;96705.72;;;2.69;55.53
5550;BME280;2798;42.716;23.256;2024-01-30T08:01:14;96674.41;;;2.65;55.77
5550;BME280;2798;42.716;23.256;2024-01-30T08:03:39;96629.91;;;2.20;55.67
5550;BME280;2798;42.716;23.256;2024-01-30T08:06:06;96669.19;;;2.78;55.50
5550;BME280;2798;42.716;23.256;2024-01-30T08:08:31;96671.72;;;2.79;56.98
5550;BME280;2798;42.716;23.256;2024-01-30T08:10:57;96675.97;;;2.80;56.86
5550;BME280;2798;42.716;23.256;2024-01-30T08:13:22;96673.41;;;2.82;56.83
5550;BME280;2798;42.716;23.256;2024-01-30T08:15:47;96659.56;;;3.05;56.26
5550;BME280;2798;42.716;23.256;2024-01-30T08:18:13;96672.25;;;3.11;54.86
5550;BME280;2798;42.716;23.256;2024-01-30T08:20:38;96668.00;;;3.12;55.58
5550;BME280;2798;42.716;23.256;2024-01-30T08:23:03;96673.97;;;3.09;55.74
5550;BME280;2798;42.716;23.256;2024-01-30T08:25:29;96668.09;;;3.04;56.35
5550;BME280;2798;42.716;23.256;2024-01-30T08:27:54;96674.69;;;3.22;55.20
5550;BME280;2798;42.716;23.256;2024-01-30T08:30:20;96676.31;;;3.26;55.09
5550;BME280;2798;42.716;23.256;2024-01-30T08:32:45;96678.78;;;3.32;55.56
5550;BME280;2798;42.716;23.256;2024-01-30T08:35:11;96685.56;;;3.33;56.04
5550;BME280;2798;42.716;23.256;2024-01-30T08:37:38;96684.66;;;3.39;55.04
5550;BME280;2798;42.716;23.256;2024-01-30T08:40:04;96686.16;;;3.56;55.13
5550;BME280;2798;42.716;23.256;2024-01-30T08:42:29;96682.84;;;3.48;55.05
5550;BME280;2798;42.716;23.256;2024-01-30T08:44:54;96690.44;;;3.52;54.63
5550;BME280;2798;42.716;23.256;2024-01-30T08:47:21;96685.28;;;3.57;54.87
5550;BME280;2798;42.716;23.256;2024-01-30T08:49:46;96677.53;;;3.65;54.73
5550;BME280;2798;42.716;23.256;2024-01-30T08:52:11;96685.03;;;3.76;54.51
5550;BME280;2798;42.716;23.256;2024-01-30T08:54:37;96692.81;;;3.65;55.54
5550;BME280;2798;42.716;23.256;2024-01-30T08:57:02;96691.19;;;3.59;55.24
5550;BME280;2798;42.716;23.256;2024-01-30T08:59:29;96694.53;;;3.61;55.88
5550;BME280;2798;42.716;23.256;2024-01-30T09:01:54;96692.06;;;3.56;55.01
5550;BME280;2798;42.716;23.256;2024-01-30T09:04:20;96694.44;;;3.70;54.56
5550;BME280;2798;42.716;23.256;2024-01-30T09:06:46;96704.38;;;3.89;54.11
5550;BME280;2798;42.716;23.256;2024-01-30T09:09:11;96700.13;;;3.91;54.72
5550;BME280;2798;42.716;23.256;2024-01-30T09:11:36;96701.84;;;3.88;53.90
5550;BME280;2798;42.716;23.256;2024-01-30T09:14:02;96701.84;;;3.88;55.19
5550;BME280;2798;42.716;23.256;2024-01-30T09:16:27;96701.13;;;3.78;55.67
5550;BME280;2798;42.716;23.256;2024-01-30T09:18:52;96697.03;;;3.67;55.48
5550;BME280;2798;42.716;23.256;2024-01-30T09:21:17;96698.66;;;3.73;55.67
5550;BME280;2798;42.716;23.256;2024-01-30T09:23:43;96691.78;;;3.80;55.79
5550;BME280;2798;42.716;23.256;2024-01-30T09:26:08;96691.78;;;3.80;55.68
5550;BME280;2798;42.716;23.256;2024-01-30T09:28:34;96682.31;;;3.88;55.73
5550;BME280;2798;42.716;23.256;2024-01-30T09:30:59;96687.25;;;4.01;55.70
5550;BME280;2798;42.716;23.256;2024-01-30T09:33:24;96687.88;;;4.15;55.40
5550;BME280;2798;42.716;23.256;2024-01-30T09:35:50;96679.06;;;4.37;54.21
5550;BME280;2798;42.716;23.256;2024-01-30T09:38:16;96679.63;;;4.54;52.59
5550;BME280;2798;42.716;23.256;2024-01-30T09:40:41;96682.25;;;4.50;53.08
5550;BME280;2798;42.716;23.256;2024-01-30T09:43:07;96671.88;;;4.61;52.25
5550;BME280;2798;42.716;23.256;2024-01-30T09:45:32;96667.59;;;4.61;51.82
5550;BME280;2798;42.716;23.256;2024-01-30T09:47:58;96663.63;;;4.46;52.36
5550;BME280;2798;42.716;23.256;2024-01-30T09:50:24;96673.13;;;4.36;51.16
5550;BME280;2798;42.716;23.256;2024-01-30T09:52:49;96656.16;;;4.33;51.70
5550;BME280;2798;42.716;23.256;2024-01-30T09:55:15;96668.00;;;4.38;51.84
5550;BME280;2798;42.716;23.256;2024-01-30T09:57:41;96674.06;;;4.30;51.45
5550;BME280;2798;42.716;23.256;2024-01-30T10:00:07;96668.56;;;4.00;52.42
5550;BME280;2798;42.716;23.256;2024-01-30T10:02:34;96659.13;;;4.05;51.67
5550;BME280;2798;42.716;23.256;2024-01-30T10:04:59;96655.72;;;4.06;51.11
5550;BME280;2798;42.716;23.256;2024-01-30T10:07:25;96658.47;;;3.92;51.79
5550;BME280;2798;42.716;23.256;2024-01-30T10:09:50;96661.19;;;3.81;51.90
5550;BME280;2798;42.716;23.256;2024-01-30T10:12:15;96655.47;;;3.65;52.94
5550;BME280;2798;42.716;23.256;2024-01-30T10:14:42;96658.72;;;3.77;53.27
5550;BME280;2798;42.716;23.256;2024-01-30T10:17:08;96635.56;;;3.91;52.96
5550;BME280;2798;42.716;23.256;2024-01-30T10:19:33;96655.97;;;3.89;53.28
5550;BME280;2798;42.716;23.256;2024-01-30T10:22:02;96650.19;;;3.78;53.66
5550;BME280;2798;42.716;23.256;2024-01-30T10:24:27;96651.66;;;3.94;53.74
5550;BME280;2798;42.716;23.256;2024-01-30T10:26:54;96653.03;;;4.17;54.96
5550;BME280;2798;42.716;23.256;2024-01-30T10:29:19;96653.66;;;4.29;54.14
5550;BME280;2798;42.716;23.256;2024-01-30T10:31:45;96649.47;;;4.26;54.35
5550;BME280;2798;42.716;23.256;2024-01-30T10:34:10;96644.31;;;4.29;54.19
5550;BME280;2798;42.716;23.256;2024-01-30T10:36:41;96658.44;;;4.51;52.74
5550;BME280;2798;42.716;23.256;2024-01-30T10:39:08;96650.78;;;4.51;54.36
5550;BME280;2798;42.716;23.256;2024-01-30T10:41:38;96656.88;;;4.42;52.81
5550;BME280;2798;42.716;23.256;2024-01-30T10:44:08;96640.56;;;4.52;52.90
5550;BME280;2798;42.716;23.256;2024-01-30T10:46:34;96651.22;;;4.75;51.74
5550;BME280;2798;42.716;23.256;2024-01-30T10:49:00;96634.97;;;4.79;51.12
5550;BME280;2798;42.716;23.256;2024-01-30T10:51:26;96640.25;;;4.69;51.26
5550;BME280;2798;42.716;23.256;2024-01-30T10:53:52;96630.88;;;4.72;52.12
5550;BME280;2798;42.716;23.256;2024-01-30T10:56:18;96628.59;;;5.02;51.71
5550;BME280;2798;42.716;23.256;2024-01-30T10:58:45;96624.38;;;5.01;50.91
5550;BME280;2798;42.716;23.256;2024-01-30T11:01:11;96628.00;;;4.89;50.98
5550;BME280;2798;42.716;23.256;2024-01-30T11:03:36;96619.31;;;4.99;51.73
5550;BME280;2798;42.716;23.256;2024-01-30T11:06:02;96622.91;;;4.87;51.60
5550;BME280;2798;42.716;23.256;2024-01-30T11:08:28;96618.13;;;4.70;51.90
5550;BME280;2798;42.716;23.256;2024-01-30T11:10:57;96620.63;;;4.73;51.40
5550;BME280;2798;42.716;23.256;2024-01-30T11:13:26;96610.44;;;4.73;51.28
5550;BME280;2798;42.716;23.256;2024-01-30T11:15:51;96603.50;;;4.80;51.54
5550;BME280;2798;42.716;23.256;2024-01-30T11:18:23;96603.75;;;4.67;51.78
5550;BME280;2798;42.716;23.256;2024-01-30T11:20:49;96610.81;;;4.53;52.35
5550;BME280;2798;42.716;23.256;2024-01-30T11:23:14;96608.72;;;4.74;51.74
5550;BME280;2798;42.716;23.256;2024-01-30T11:25:40;96602.34;;;4.95;52.00
5550;BME280;2798;42.716;23.256;2024-01-30T11:28:05;96602.31;;;4.97;51.11
5550;BME280;2798;42.716;23.256;2024-01-30T11:30:31;96602.47;;;4.89;51.58
5550;BME280;2798;42.716;23.256;2024-01-30T11:33:27;96594.06;;;4.85;52.28
5550;BME280;2798;42.716;23.256;2024-01-30T11:35:43;96599.03;;;4.91;51.74
5550;BME280;2798;42.716;23.256;2024-01-30T11:38:09;96558.13;;;4.50;52.17
5550;BME280;2798;42.716;23.256;2024-01-30T11:40:35;96603.63;;;4.74;52.56
5550;BME280;2798;42.716;23.256;2024-01-30T11:43:01;96545.69;;;4.35;52.19
5550;BME280;2798;42.716;23.256;2024-01-30T11:45:27;96594.13;;;4.82;52.20
5550;BME280;2798;42.716;23.256;2024-01-30T11:47:52;96594.44;;;4.65;52.51
5550;BME280;2798;42.716;23.256;2024-01-30T11:50:18;96586.81;;;4.63;51.88
5550;BME280;2798;42.716;23.256;2024-01-30T11:52:43;96599.63;;;4.58;52.77
5550;BME280;2798;42.716;23.256;2024-01-30T11:55:09;96594.28;;;4.73;52.78
5550;BME280;2798;42.716;23.256;2024-01-30T11:57:35;96593.53;;;4.67;52.95
5550;BME280;2798;42.716;23.256;2024-01-30T12:00:02;96581.59;;;4.69;65.79
5550;BME280;2798;42.716;23.256;2024-01-30T12:02:29;96584.66;;;4.87;61.73
5550;BME280;2798;42.716;23.256;2024-01-30T12:04:54;96576.47;;;5.14;57.29
5550;BME280;2798;42.716;23.256;2024-01-30T12:07:20;96572.72;;;5.30;55.12
5550;BME280;2798;42.716;23.256;2024-01-30T12:09:54;96561.09;;;5.17;54.30
5550;BME280;2798;42.716;23.256;2024-01-30T12:12:21;96561.94;;;5.17;53.80
5550;BME280;2798;42.716;23.256;2024-01-30T12:14:46;96558.94;;;5.38;51.96
5550;BME280;2798;42.716;23.256;2024-01-30T12:17:22;96557.78;;;5.53;52.39
5550;BME280;2798;42.716;23.256;2024-01-30T12:19:47;96551.19;;;5.42;52.12
5550;BME280;2798;42.716;23.256;2024-01-30T12:22:12;96555.31;;;5.48;51.63
5550;BME280;2798;42.716;23.256;2024-01-30T12:24:38;96558.09;;;5.77;51.12
5550;BME280;2798;42.716;23.256;2024-01-30T12:27:03;96556.34;;;5.77;50.89
5550;BME280;2798;42.716;23.256;2024-01-30T12:29:31;96555.84;;;5.63;50.79
5550;BME280;2798;42.716;23.256;2024-01-30T12:31:57;96544.34;;;5.81;49.57
5550;BME280;2798;42.716;23.256;2024-01-30T12:34:22;96547.28;;;5.65;51.31
5550;BME280;2798;42.716;23.256;2024-01-30T12:36:49;96546.56;;;5.59;51.95
5550;BME280;2798;42.716;23.256;2024-01-30T12:39:15;96548.16;;;5.63;52.16
5550;BME280;2798;42.716;23.256;2024-01-30T12:41:40;96546.22;;;5.74;51.45
5550;BME280;2798;42.716;23.256;2024-01-30T12:44:06;96405.81;;;5.00;51.32
5550;BME280;2798;42.716;23.256;2024-01-30T12:46:31;96539.00;;;5.90;51.16
5550;BME280;2798;42.716;23.256;2024-01-30T12:48:59;96542.25;;;5.97;51.27
5550;BME280;2798;42.716;23.256;2024-01-30T12:51:24;96531.59;;;6.16;49.75
5550;BME280;2798;42.716;23.256;2024-01-30T12:53:49;96532.72;;;6.39;49.65
5550;BME280;2798;42.716;23.256;2024-01-30T12:56:15;96531.00;;;6.39;49.53
5550;BME280;2798;42.716;23.256;2024-01-30T12:58:41;96526.91;;;6.32;50.00
5550;BME280;2798;42.716;23.256;2024-01-30T13:01:08;96520.06;;;6.34;48.71
5550;BME280;2798;42.716;23.256;2024-01-30T13:03:33;96517.75;;;6.25;50.07
5550;BME280;2798;42.716;23.256;2024-01-30T13:05:58;96513.66;;;6.17;49.38
5550;BME280;2798;42.716;23.256;2024-01-30T13:08:24;96509.38;;;6.18;49.68
5550;BME280;2798;42.716;23.256;2024-01-30T13:10:49;96516.97;;;6.21;49.45
5550;BME280;2798;42.716;23.256;2024-01-30T13:13:14;96509.34;;;6.20;49.14